createdAt,value
2023-02-22T00:00:50.180Z,14.40
2023-02-22T00:01:50.138Z,14.20
2023-02-22T00:02:50.297Z,14.30
2023-02-22T00:03:50.100Z,14.20
2023-02-22T00:04:50.089Z,14.30
2023-02-22T00:05:50.078Z,14.20
2023-02-22T00:06:50.065Z,14.40
2023-02-22T00:07:50.091Z,14.50
2023-02-22T00:08:50.043Z,14.30
2023-02-22T00:09:50.038Z,14.40
2023-02-22T00:10:50.026Z,14.40
2023-02-22T00:11:50.029Z,14.20
2023-02-22T00:12:50.036Z,14.10
2023-02-22T00:13:49.992Z,14.00
2023-02-22T00:14:49.983Z,14.20
2023-02-22T00:15:49.969Z,14.30
2023-02-22T00:16:49.956Z,14.10
2023-02-22T00:17:49.973Z,14.30
2023-02-22T00:18:49.941Z,14.30
2023-02-22T00:19:49.929Z,14.20
2023-02-22T00:20:49.915Z,14.10
2023-02-22T00:21:49.906Z,14.10
2023-02-22T00:22:49.941Z,14.20
2023-02-22T00:23:49.902Z,14.20
2023-02-22T00:24:49.878Z,14.30
2023-02-22T00:25:49.862Z,14.20
2023-02-22T00:26:49.845Z,14.00
2023-02-22T00:27:49.860Z,14.20
2023-02-22T00:28:49.890Z,14.10
2023-02-22T00:29:49.818Z,14.00
2023-02-22T00:30:49.807Z,14.10
2023-02-22T00:31:49.893Z,14.10
2023-02-22T00:32:49.850Z,14.10
2023-02-22T00:33:49.779Z,14.20
2023-02-22T00:34:49.760Z,14.20
2023-02-22T00:35:49.784Z,14.50
2023-02-22T00:36:49.752Z,14.30
2023-02-22T00:37:49.755Z,14.50
2023-02-22T00:38:49.727Z,14.30
2023-02-22T00:39:49.706Z,14.20
2023-02-22T00:40:49.708Z,14.50
2023-02-22T00:41:49.849Z,14.30
2023-02-22T00:42:49.701Z,14.50
2023-02-22T00:43:49.672Z,14.60
2023-02-22T00:44:49.671Z,14.70
2023-02-22T00:45:49.679Z,14.40
2023-02-22T00:46:49.643Z,14.40
2023-02-22T00:47:49.658Z,14.30
2023-02-22T00:48:49.613Z,14.50
2023-02-22T00:49:49.598Z,14.50
2023-02-22T00:50:49.594Z,14.30
2023-02-22T00:51:49.576Z,14.50
2023-02-22T00:52:49.586Z,14.30
2023-02-22T00:53:49.564Z,14.40
2023-02-22T00:54:49.548Z,14.50
2023-02-22T00:55:49.543Z,14.50
2023-02-22T00:56:49.524Z,14.40
2023-02-22T00:57:49.526Z,14.50
2023-02-22T00:58:49.501Z,14.30
2023-02-22T00:59:49.493Z,14.30
2023-02-22T01:00:49.572Z,14.30
2023-02-22T01:01:49.477Z,14.40
2023-02-22T01:02:49.498Z,14.20
2023-02-22T01:03:49.458Z,14.10
2023-02-22T01:04:49.435Z,14.20
2023-02-22T01:05:49.424Z,14.10
2023-02-22T01:06:49.422Z,14.40
2023-02-22T01:07:49.422Z,14.40
2023-02-22T01:08:49.388Z,14.60
2023-02-22T01:09:49.389Z,14.50
2023-02-22T01:10:49.381Z,14.40
2023-02-22T01:11:49.370Z,14.40
2023-02-22T01:12:49.377Z,14.30
2023-02-22T01:13:49.342Z,14.30
2023-02-22T01:14:49.327Z,14.40
2023-02-22T01:15:49.317Z,14.30
2023-02-22T01:16:49.343Z,14.20
2023-02-22T01:17:49.313Z,14.50
2023-02-22T01:18:49.286Z,14.40
2023-02-22T01:19:49.278Z,14.40
2023-02-22T01:20:49.284Z,14.20
2023-02-22T01:21:49.257Z,14.20
2023-02-22T01:22:49.284Z,14.20
2023-02-22T01:23:49.240Z,14.40
2023-02-22T01:24:49.221Z,14.20
2023-02-22T01:25:49.215Z,14.30
2023-02-22T01:26:49.204Z,14.10
2023-02-22T01:27:49.192Z,14.30
2023-02-22T01:28:49.193Z,14.10
2023-02-22T01:29:49.171Z,14.40
2023-02-22T01:30:49.315Z,14.10
2023-02-22T01:31:49.177Z,14.20
2023-02-22T01:32:49.163Z,14.40
2023-02-22T01:33:49.160Z,14.00
2023-02-22T01:34:49.108Z,14.20
2023-02-22T01:35:49.104Z,13.90
2023-02-22T01:36:49.094Z,14.20
2023-02-22T01:37:49.096Z,14.10
2023-02-22T01:38:49.098Z,14.10
2023-02-22T01:39:49.066Z,14.10
2023-02-22T01:40:49.081Z,14.00
2023-02-22T01:41:49.042Z,14.10
2023-02-22T01:42:49.028Z,14.20
2023-02-22T01:43:49.008Z,13.90
2023-02-22T01:44:48.996Z,14.20
2023-02-22T01:45:49.054Z,14.30
2023-02-22T01:46:48.980Z,14.10
2023-02-22T01:47:48.960Z,14.20
2023-02-22T01:48:49.013Z,14.20
2023-02-22T01:49:48.947Z,14.10
2023-02-22T01:50:48.948Z,14.00
2023-02-22T01:51:48.920Z,14.10
2023-02-22T01:52:48.911Z,14.20
2023-02-22T01:53:48.927Z,14.00
2023-02-22T01:54:48.888Z,14.00
2023-02-22T01:55:48.881Z,13.90
2023-02-22T01:56:48.871Z,13.90
2023-02-22T01:57:48.866Z,14.00
2023-02-22T01:58:48.873Z,14.20
2023-02-22T01:59:48.849Z,14.20
2023-02-22T02:00:48.864Z,14.00
2023-02-22T02:01:48.813Z,14.20
2023-02-22T02:02:48.801Z,13.90
2023-02-22T02:03:48.860Z,13.80
2023-02-22T02:04:48.834Z,13.90
2023-02-22T02:05:48.772Z,13.90
2023-02-22T02:06:48.792Z,14.00
2023-02-22T02:07:48.744Z,14.00
2023-02-22T02:08:48.775Z,14.00
2023-02-22T02:09:48.734Z,14.10
2023-02-22T02:10:48.725Z,14.00
2023-02-22T02:11:48.707Z,13.90
2023-02-22T02:12:48.709Z,13.90
2023-02-22T02:13:48.704Z,14.10
2023-02-22T02:14:48.671Z,14.10
2023-02-22T02:15:48.663Z,14.10
2023-02-22T02:16:48.800Z,14.00
2023-02-22T02:17:48.642Z,14.00
2023-02-22T02:18:48.659Z,13.90
2023-02-22T02:19:48.615Z,14.10
2023-02-22T02:20:48.630Z,14.10
2023-02-22T02:21:48.600Z,14.00
2023-02-22T02:22:48.589Z,14.30
2023-02-22T02:23:48.590Z,14.20
2023-02-22T02:24:48.564Z,14.30
2023-02-22T02:25:48.577Z,14.00
2023-02-22T02:26:48.545Z,14.00
2023-02-22T02:27:48.537Z,14.10
2023-02-22T02:28:48.525Z,14.00
2023-02-22T02:29:48.515Z,14.10
2023-02-22T02:30:48.512Z,13.90
2023-02-22T02:31:48.687Z,13.70
2023-02-22T02:32:48.484Z,13.90
2023-02-22T02:33:48.466Z,13.90
2023-02-22T02:34:48.452Z,14.00
2023-02-22T02:35:48.459Z,14.10
2023-02-22T02:36:48.461Z,14.10
2023-02-22T02:37:48.423Z,14.10
2023-02-22T02:38:48.477Z,14.10
2023-02-22T02:39:48.409Z,14.10
2023-02-22T02:40:48.393Z,13.80
2023-02-22T02:41:48.388Z,14.10
2023-02-22T02:42:48.365Z,14.00
2023-02-22T02:43:48.377Z,14.10
2023-02-22T02:44:48.784Z,14.00
2023-02-22T02:45:48.354Z,14.10
2023-02-22T02:46:48.367Z,14.20
2023-02-22T02:47:48.314Z,14.10
2023-02-22T02:48:48.312Z,14.30
2023-02-22T02:49:48.291Z,14.10
2023-02-22T02:50:48.305Z,14.10
2023-02-22T02:51:48.269Z,14.20
2023-02-22T02:52:48.281Z,14.30
2023-02-22T02:53:48.274Z,14.10
2023-02-22T02:54:48.242Z,14.00
2023-02-22T02:55:48.263Z,14.10
2023-02-22T02:56:48.220Z,14.00
2023-02-22T02:57:48.204Z,14.10
2023-02-22T02:58:48.205Z,14.20
2023-02-22T02:59:48.191Z,14.00
2023-02-22T03:00:48.191Z,14.10
2023-02-22T03:01:48.210Z,13.90
2023-02-22T03:02:48.154Z,14.10
2023-02-22T03:03:48.197Z,14.20
2023-02-22T03:04:48.134Z,14.10
2023-02-22T03:05:48.128Z,14.10
2023-02-22T03:06:48.144Z,14.00
2023-02-22T03:07:48.097Z,14.10
2023-02-22T03:08:48.126Z,14.10
2023-02-22T03:09:48.186Z,14.10
2023-02-22T03:10:48.074Z,13.90
2023-02-22T03:11:48.054Z,14.20
2023-02-22T03:12:48.052Z,13.80
2023-02-22T03:13:48.060Z,14.10
2023-02-22T03:14:48.023Z,14.60
2023-02-22T03:15:48.010Z,14.20
2023-02-22T03:16:47.998Z,14.00
2023-02-22T03:17:47.998Z,15.20
2023-02-22T03:18:47.995Z,13.90
2023-02-22T03:19:47.970Z,13.80
2023-02-22T03:20:47.961Z,13.80
2023-02-22T03:21:47.955Z,14.00
2023-02-22T03:22:47.934Z,14.50
2023-02-22T03:23:47.940Z,15.70
2023-02-22T03:24:47.933Z,14.10
2023-02-22T03:25:47.900Z,13.80
2023-02-22T03:26:47.902Z,14.30
2023-02-22T03:27:47.890Z,14.10
2023-02-22T03:28:47.885Z,14.30
2023-02-22T03:29:47.859Z,14.00
2023-02-22T03:30:47.876Z,13.90
2023-02-22T03:31:47.851Z,14.40
2023-02-22T03:32:47.828Z,14.20
2023-02-22T03:33:47.839Z,14.60
2023-02-22T03:34:47.808Z,13.80
2023-02-22T03:35:47.816Z,14.50
2023-02-22T03:36:47.790Z,14.00
2023-02-22T03:37:47.773Z,14.00
2023-02-22T03:38:47.765Z,14.30
2023-02-22T03:39:47.748Z,14.10
2023-02-22T03:40:47.780Z,13.90
2023-02-22T03:41:47.730Z,13.90
2023-02-22T03:42:47.727Z,14.10
2023-02-22T03:43:47.708Z,14.40
2023-02-22T03:44:47.694Z,13.90
2023-02-22T03:45:47.695Z,14.70
2023-02-22T03:46:47.676Z,14.00
2023-02-22T03:47:47.661Z,13.80
2023-02-22T03:48:47.671Z,14.00
2023-02-22T03:49:47.645Z,13.90
2023-02-22T03:50:47.641Z,14.00
2023-02-22T03:51:47.623Z,13.80
2023-02-22T03:52:47.607Z,14.70
2023-02-22T03:53:47.606Z,14.50
2023-02-22T03:54:47.588Z,14.10
2023-02-22T03:55:47.571Z,14.80
2023-02-22T03:56:47.585Z,14.00
2023-02-22T03:57:47.552Z,14.00
2023-02-22T03:58:47.584Z,13.80
2023-02-22T03:59:47.531Z,13.70
2023-02-22T04:00:47.521Z,13.80
2023-02-22T04:01:47.508Z,13.90
2023-02-22T04:02:47.543Z,14.30
2023-02-22T04:03:47.516Z,14.70
2023-02-22T04:04:47.582Z,14.30
2023-02-22T04:05:47.462Z,15.00
2023-02-22T04:06:47.451Z,14.20
2023-02-22T04:07:47.448Z,14.20
2023-02-22T04:08:47.454Z,14.30
2023-02-22T04:09:47.420Z,14.40
2023-02-22T04:10:47.411Z,14.50
2023-02-22T04:11:47.408Z,14.10
2023-02-22T04:12:47.407Z,14.20
2023-02-22T04:13:47.445Z,14.20
2023-02-22T04:14:47.397Z,14.30
2023-02-22T04:15:47.434Z,16.70
2023-02-22T04:16:47.349Z,14.10
2023-02-22T04:17:47.340Z,14.20
2023-02-22T04:18:47.374Z,14.40
2023-02-22T04:19:47.320Z,14.30
2023-02-22T04:20:47.322Z,14.00
2023-02-22T04:21:47.332Z,13.70
2023-02-22T04:22:55.257Z,14.90
2023-02-22T04:23:47.278Z,15.10
2023-02-22T04:24:47.262Z,14.50
2023-02-22T04:25:47.250Z,14.10
2023-02-22T04:26:47.236Z,14.30
2023-02-22T04:27:47.227Z,14.50
2023-02-22T04:28:47.252Z,14.00
2023-02-22T04:29:47.201Z,14.30
2023-02-22T04:30:47.213Z,14.10
2023-02-22T04:31:47.224Z,14.80
2023-02-22T04:32:47.171Z,15.60
2023-02-22T04:33:47.183Z,13.80
2023-02-22T04:34:47.148Z,14.30
2023-02-22T04:35:47.160Z,17.00
2023-02-22T04:36:47.132Z,13.80
2023-02-22T04:37:47.114Z,14.20
2023-02-22T04:38:47.105Z,14.20
2023-02-22T04:39:47.145Z,14.80
2023-02-22T04:40:47.124Z,14.60
2023-02-22T04:41:47.073Z,16.00
2023-02-22T04:42:47.068Z,14.20
2023-02-22T04:43:47.059Z,15.00
2023-02-22T04:44:47.060Z,15.30
2023-02-22T04:45:47.048Z,14.20
2023-02-22T04:46:47.105Z,14.20
2023-02-22T04:47:47.008Z,14.30
2023-02-22T04:48:47.001Z,14.30
2023-02-22T04:49:47.010Z,14.10
2023-02-22T04:50:46.976Z,14.90
2023-02-22T04:51:46.966Z,14.30
2023-02-22T04:52:46.952Z,14.60
2023-02-22T04:53:46.948Z,16.30
2023-02-22T04:54:46.952Z,15.80
2023-02-22T04:55:46.938Z,14.40
2023-02-22T04:56:46.913Z,14.60
2023-02-22T04:57:46.902Z,14.60
2023-02-22T04:58:46.948Z,15.10
2023-02-22T04:59:46.878Z,14.40
2023-02-22T05:00:46.928Z,14.10
2023-02-22T05:01:46.851Z,15.10
2023-02-22T05:02:46.876Z,14.60
2023-02-22T05:03:46.832Z,14.70
2023-02-22T05:04:46.885Z,14.20
2023-02-22T05:05:46.816Z,14.00
2023-02-22T05:06:46.829Z,14.90
2023-02-22T05:07:46.785Z,14.60
2023-02-22T05:08:46.780Z,14.60
2023-02-22T05:09:46.784Z,15.40
2023-02-22T05:10:46.755Z,14.10
2023-02-22T05:11:46.767Z,14.30
2023-02-22T05:12:46.743Z,14.30
2023-02-22T05:13:46.720Z,14.70
2023-02-22T05:14:46.715Z,15.80
2023-02-22T05:15:46.724Z,14.00
2023-02-22T05:16:46.727Z,14.20
2023-02-22T05:17:46.679Z,14.40
2023-02-22T05:18:46.668Z,14.20
2023-02-22T05:19:46.685Z,15.50
2023-02-22T05:20:46.654Z,14.80
2023-02-22T05:21:46.641Z,14.20
2023-02-22T05:22:46.624Z,14.30
2023-02-22T05:23:46.617Z,14.60
2023-02-22T05:24:46.660Z,14.60
2023-02-22T05:25:46.592Z,14.60
2023-02-22T05:26:46.583Z,14.20
2023-02-22T05:27:46.572Z,14.10
2023-02-22T05:28:46.563Z,15.70
2023-02-22T05:29:46.563Z,14.30
2023-02-22T05:30:46.647Z,14.40
2023-02-22T05:31:46.623Z,15.10
2023-02-22T05:32:47.178Z,14.20
2023-02-22T05:33:46.503Z,14.20
2023-02-22T05:34:46.594Z,14.80
2023-02-22T05:35:46.513Z,14.40
2023-02-22T05:36:46.515Z,14.20
2023-02-22T05:37:46.461Z,14.30
2023-02-22T05:38:46.457Z,14.10
2023-02-22T05:39:46.537Z,14.80
2023-02-22T05:40:46.434Z,15.80
2023-02-22T05:41:46.440Z,14.50
2023-02-22T05:42:48.716Z,14.20
2023-02-22T05:43:46.418Z,15.70
2023-02-22T05:44:46.443Z,14.30
2023-02-22T05:45:46.374Z,14.80
2023-02-22T05:46:46.428Z,14.70
2023-02-22T05:47:46.384Z,14.50
2023-02-22T05:48:46.368Z,15.00
2023-02-22T05:49:46.345Z,14.70
2023-02-22T05:50:46.327Z,15.50
2023-02-22T05:51:46.310Z,14.20
2023-02-22T05:52:46.299Z,14.30
2023-02-22T05:53:46.292Z,15.30
2023-02-22T05:54:46.302Z,15.30
2023-02-22T05:55:46.659Z,14.80
2023-02-22T05:56:46.272Z,15.00
2023-02-22T05:57:46.262Z,14.30
2023-02-22T05:58:46.234Z,14.80
2023-02-22T05:59:46.239Z,14.40
2023-02-22T06:00:46.217Z,15.00
2023-02-22T06:01:46.250Z,16.30
2023-02-22T06:02:46.248Z,14.60
2023-02-22T06:03:46.176Z,14.80
2023-02-22T06:04:46.204Z,15.40
2023-02-22T06:05:46.177Z,14.80
2023-02-22T06:06:46.155Z,15.00
2023-02-22T06:07:46.137Z,15.00
2023-02-22T06:08:46.121Z,14.90
2023-02-22T06:09:46.136Z,15.10
2023-02-22T06:10:46.103Z,14.70
2023-02-22T06:11:46.087Z,15.30
2023-02-22T06:12:46.098Z,14.50
2023-02-22T06:13:46.064Z,15.00
2023-02-22T06:14:46.138Z,15.20
2023-02-22T06:15:46.047Z,14.60
2023-02-22T06:16:46.034Z,15.40
2023-02-22T06:17:46.034Z,15.10
2023-02-22T06:18:46.052Z,14.90
2023-02-22T06:19:46.034Z,14.70
2023-02-22T06:20:46.114Z,15.00
2023-02-22T06:21:45.990Z,14.80
2023-02-22T06:22:45.979Z,14.70
2023-02-22T06:23:45.966Z,15.70
2023-02-22T06:24:46.017Z,15.50
2023-02-22T06:25:45.933Z,14.60
2023-02-22T06:26:45.922Z,15.70
2023-02-22T06:27:45.910Z,14.70
2023-02-22T06:28:45.900Z,15.00
2023-02-22T06:29:45.907Z,15.10
2023-02-22T06:30:45.986Z,14.90
2023-02-22T06:31:45.952Z,15.20
2023-02-22T06:32:45.862Z,14.50
2023-02-22T06:33:45.865Z,15.30
2023-02-22T06:34:45.888Z,15.90
2023-02-22T06:35:45.830Z,14.70
2023-02-22T06:36:45.910Z,14.80
2023-02-22T06:37:45.821Z,15.50
2023-02-22T06:38:45.802Z,15.20
2023-02-22T06:39:45.801Z,15.30
2023-02-22T06:40:45.777Z,15.50
2023-02-22T06:41:45.846Z,14.80
2023-02-22T06:42:45.749Z,16.10
2023-02-22T06:43:45.736Z,15.90
2023-02-22T06:44:45.750Z,14.70
2023-02-22T06:45:45.741Z,15.10
2023-02-22T06:46:45.706Z,15.80
2023-02-22T06:47:45.697Z,14.90
2023-02-22T06:48:45.709Z,15.10
2023-02-22T06:49:45.734Z,15.00
2023-02-22T06:50:45.662Z,15.20
2023-02-22T06:51:45.647Z,14.90
2023-02-22T06:52:45.669Z,15.70
2023-02-22T06:53:45.636Z,15.20
2023-02-22T06:54:45.645Z,15.00
2023-02-22T06:55:45.605Z,15.40
2023-02-22T06:56:45.605Z,15.30
2023-02-22T06:57:45.585Z,14.80
2023-02-22T06:58:45.623Z,15.40
2023-02-22T06:59:45.574Z,15.90
2023-02-22T07:00:45.591Z,14.80
2023-02-22T07:01:45.552Z,15.40
2023-02-22T07:02:45.568Z,15.10
2023-02-22T07:03:45.604Z,15.50
2023-02-22T07:04:45.506Z,15.00
2023-02-22T07:05:45.538Z,14.90
2023-02-22T07:06:45.488Z,15.90
2023-02-22T07:07:45.482Z,15.10
2023-02-22T07:08:45.485Z,15.30
2023-02-22T07:09:45.670Z,14.70
2023-02-22T07:10:45.463Z,14.60
2023-02-22T07:11:45.434Z,15.20
2023-02-22T07:12:45.429Z,14.90
2023-02-22T07:13:45.417Z,15.10
2023-02-22T07:14:45.405Z,15.70
2023-02-22T07:15:45.405Z,15.00
2023-02-22T07:16:45.385Z,15.10
2023-02-22T07:17:45.376Z,15.70
2023-02-22T07:18:45.358Z,15.60
2023-02-22T07:19:45.350Z,15.10
2023-02-22T07:20:45.356Z,15.90
2023-02-22T07:21:45.340Z,16.30
2023-02-22T07:22:45.316Z,16.10
2023-02-22T07:23:45.342Z,15.40
2023-02-22T07:24:45.328Z,15.00
2023-02-22T07:25:45.284Z,15.60
2023-02-22T07:26:45.285Z,15.50
2023-02-22T07:27:45.265Z,15.10
2023-02-22T07:28:45.273Z,15.70
2023-02-22T07:29:45.251Z,15.80
2023-02-22T07:30:45.333Z,15.50
2023-02-22T07:31:45.223Z,15.60
2023-02-22T07:32:45.313Z,15.70
2023-02-22T07:33:45.255Z,15.10
2023-02-22T07:34:45.181Z,16.10
2023-02-22T07:35:45.208Z,16.50
2023-02-22T07:36:45.203Z,15.50
2023-02-22T07:37:45.150Z,15.50
2023-02-22T07:38:45.142Z,15.80
2023-02-22T07:39:45.135Z,15.40
2023-02-22T07:40:45.158Z,15.40
2023-02-22T07:41:45.107Z,16.00
2023-02-22T07:42:45.094Z,15.50
2023-02-22T07:43:45.083Z,15.30
2023-02-22T07:44:45.088Z,15.60
2023-02-22T07:45:45.170Z,15.40
2023-02-22T07:46:45.050Z,15.20
2023-02-22T07:47:45.039Z,16.10
2023-02-22T07:48:45.057Z,15.60
2023-02-22T07:49:45.017Z,15.30
2023-02-22T07:50:45.035Z,15.80
2023-02-22T07:51:44.996Z,15.30
2023-02-22T07:52:44.986Z,15.60
2023-02-22T07:53:45.036Z,16.90
2023-02-22T07:54:44.961Z,15.60
2023-02-22T07:55:44.957Z,15.60
2023-02-22T07:56:44.961Z,15.90
2023-02-22T07:57:44.928Z,15.40
2023-02-22T07:58:44.957Z,16.10
2023-02-22T07:59:44.915Z,15.00
2023-02-22T08:00:44.942Z,15.30
2023-02-22T08:01:44.883Z,16.50
2023-02-22T08:02:44.940Z,15.40
2023-02-22T08:03:44.953Z,14.80
2023-02-22T08:04:44.852Z,16.20
2023-02-22T08:05:44.876Z,15.60
2023-02-22T08:06:44.833Z,16.70
2023-02-22T08:07:44.844Z,15.40
2023-02-22T08:08:44.821Z,15.10
2023-02-22T08:09:44.797Z,16.40
2023-02-22T08:10:44.804Z,15.60
2023-02-22T08:11:44.778Z,15.20
2023-02-22T08:12:44.790Z,15.00
2023-02-22T08:13:44.756Z,15.50
2023-02-22T08:14:44.741Z,14.70
2023-02-22T08:15:44.752Z,14.90
2023-02-22T08:16:44.728Z,15.20
2023-02-22T08:17:44.719Z,15.10
2023-02-22T08:18:44.699Z,15.20
2023-02-22T08:19:44.694Z,15.50
2023-02-22T08:20:44.743Z,15.20
2023-02-22T08:21:44.674Z,15.60
2023-02-22T08:22:44.665Z,15.40
2023-02-22T08:23:44.669Z,15.00
2023-02-22T08:24:44.644Z,15.30
2023-02-22T08:25:44.640Z,15.00
2023-02-22T08:26:44.625Z,15.50
2023-02-22T08:27:44.603Z,14.90
2023-02-22T08:28:44.629Z,14.50
2023-02-22T08:29:44.581Z,15.50
2023-02-22T08:30:44.623Z,14.70
2023-02-22T08:31:44.586Z,14.60
2023-02-22T08:32:44.643Z,15.00
2023-02-22T08:33:44.555Z,15.20
2023-02-22T08:34:44.557Z,14.70
2023-02-22T08:35:44.540Z,14.40
2023-02-22T08:36:44.507Z,14.90
2023-02-22T08:37:44.501Z,14.80
2023-02-22T08:38:44.521Z,14.70
2023-02-22T08:39:44.473Z,14.60
2023-02-22T08:40:44.485Z,14.40
2023-02-22T08:41:44.448Z,14.50
2023-02-22T08:42:44.448Z,14.30
2023-02-22T08:43:44.430Z,14.50
2023-02-22T08:44:44.460Z,14.80
2023-02-22T08:45:44.481Z,14.30
2023-02-22T08:46:44.397Z,14.40
2023-02-22T08:47:44.386Z,14.40
2023-02-22T08:48:44.407Z,15.10
2023-02-22T08:49:44.360Z,15.20
2023-02-22T08:50:44.595Z,14.90
2023-02-22T08:51:44.345Z,15.10
2023-02-22T08:52:44.332Z,15.70
2023-02-22T08:53:44.319Z,14.80
2023-02-22T08:54:44.334Z,14.30
2023-02-22T08:55:44.309Z,15.10
2023-02-22T08:56:44.280Z,14.20
2023-02-22T08:57:44.271Z,15.20
2023-02-22T08:58:44.264Z,14.70
2023-02-22T08:59:44.251Z,14.30
2023-02-22T09:00:44.281Z,14.10
2023-02-22T09:01:44.280Z,14.90
2023-02-22T09:02:44.213Z,14.40
2023-02-22T09:03:44.221Z,14.10
2023-02-22T09:04:44.195Z,14.50
2023-02-22T09:05:44.353Z,15.80
2023-02-22T09:06:44.172Z,14.30
2023-02-22T09:07:44.162Z,14.50
2023-02-22T09:08:44.149Z,15.70
2023-02-22T09:09:44.175Z,14.60
2023-02-22T09:10:44.148Z,14.80
2023-02-22T09:11:44.120Z,15.00
2023-02-22T09:12:44.110Z,14.80
2023-02-22T09:13:44.104Z,14.70
2023-02-22T09:14:44.083Z,14.70
2023-02-22T09:15:44.110Z,14.70
2023-02-22T09:16:44.158Z,15.20
2023-02-22T09:17:44.050Z,16.00
2023-02-22T09:18:44.701Z,15.30
2023-02-22T09:19:44.030Z,14.70
2023-02-22T09:20:44.067Z,15.70
2023-02-22T09:21:44.017Z,14.80
2023-02-22T09:22:43.997Z,14.70
2023-02-22T09:23:43.995Z,16.30
2023-02-22T09:24:43.975Z,15.00
2023-02-22T09:25:44.003Z,14.60
2023-02-22T09:26:43.954Z,15.10
2023-02-22T09:27:44.120Z,14.90
2023-02-22T09:28:43.944Z,16.10
2023-02-22T09:29:43.921Z,15.00
2023-02-22T09:30:43.988Z,14.90
2023-02-22T09:31:44.022Z,16.00
2023-02-22T09:32:44.118Z,15.50
2023-02-22T09:33:45.872Z,15.00
2023-02-22T09:34:43.870Z,15.10
2023-02-22T09:35:43.910Z,15.10
2023-02-22T09:36:43.844Z,15.30
2023-02-22T09:37:43.848Z,15.30
2023-02-22T09:38:43.826Z,15.40
2023-02-22T09:39:43.868Z,14.80
2023-02-22T09:40:43.805Z,15.00
2023-02-22T09:41:43.793Z,14.90
2023-02-22T09:42:43.782Z,15.60
2023-02-22T09:43:43.807Z,15.00
2023-02-22T09:44:43.811Z,14.80
2023-02-22T09:45:43.784Z,15.50
2023-02-22T09:46:43.734Z,15.70
2023-02-22T09:47:43.730Z,15.60
2023-02-22T09:48:43.730Z,15.30
2023-02-22T09:49:43.735Z,14.90
2023-02-22T09:50:43.712Z,15.50
2023-02-22T09:51:43.680Z,15.50
2023-02-22T09:52:43.678Z,14.60
2023-02-22T09:53:43.662Z,15.30
2023-02-22T09:54:43.669Z,14.70
2023-02-22T09:55:43.656Z,15.10
2023-02-22T09:56:43.627Z,15.00
2023-02-22T09:57:43.623Z,15.30
2023-02-22T09:58:43.604Z,16.20
2023-02-22T09:59:43.629Z,15.10
2023-02-22T10:00:43.588Z,15.30
2023-02-22T10:01:43.614Z,15.40
2023-02-22T10:02:43.559Z,15.00
2023-02-22T10:03:43.742Z,15.30
2023-02-22T10:04:43.560Z,15.00
2023-02-22T10:05:43.551Z,14.70
2023-02-22T10:06:43.519Z,15.50
2023-02-22T10:07:43.515Z,15.00
2023-02-22T10:08:43.496Z,14.60
2023-02-22T10:09:43.533Z,15.00
2023-02-22T10:10:43.501Z,14.30
2023-02-22T10:11:43.476Z,14.60
2023-02-22T10:12:43.451Z,14.50
2023-02-22T10:13:43.443Z,14.40
2023-02-22T10:14:44.092Z,14.50
2023-02-22T10:15:43.434Z,14.60
2023-02-22T10:16:43.465Z,14.40
2023-02-22T10:17:43.396Z,14.50
2023-02-22T10:18:43.395Z,14.80
2023-02-22T10:19:43.402Z,15.10
2023-02-22T10:20:43.406Z,14.50
2023-02-22T10:21:43.371Z,14.60
2023-02-22T10:22:52.353Z,14.60
2023-02-22T10:23:43.329Z,14.70
2023-02-22T10:24:43.316Z,14.70
2023-02-22T10:25:43.321Z,14.60
2023-02-22T10:26:43.305Z,14.70
2023-02-22T10:27:43.282Z,14.70
2023-02-22T10:28:43.284Z,14.50
2023-02-22T10:29:43.322Z,14.40
2023-02-22T10:30:43.305Z,14.30
2023-02-22T10:31:43.287Z,14.50
2023-02-22T10:32:43.284Z,14.40
2023-02-22T10:33:43.225Z,14.20
2023-02-22T10:34:43.209Z,14.30
2023-02-22T10:35:44.835Z,14.60
2023-02-22T10:36:43.208Z,14.70
2023-02-22T10:37:43.262Z,15.00
2023-02-22T10:38:43.197Z,14.40
2023-02-22T10:39:43.245Z,14.60
2023-02-22T10:40:43.155Z,15.00
2023-02-22T10:41:43.133Z,14.70
2023-02-22T10:42:43.188Z,15.10
2023-02-22T10:43:43.110Z,15.20
2023-02-22T10:44:43.101Z,15.30
2023-02-22T10:45:43.136Z,15.00
2023-02-22T10:46:43.085Z,14.80
2023-02-22T10:47:43.069Z,16.30
2023-02-22T10:48:43.053Z,14.80
2023-02-22T10:49:43.046Z,14.90
2023-02-22T10:50:43.057Z,14.90
2023-02-22T10:51:43.023Z,15.20
2023-02-22T10:52:43.141Z,14.80
2023-02-22T10:53:43.026Z,15.10
2023-02-22T10:54:42.994Z,15.00
2023-02-22T10:55:43.009Z,15.00
2023-02-22T10:56:42.967Z,14.70
2023-02-22T10:57:42.961Z,15.20
2023-02-22T10:58:42.944Z,15.00
2023-02-22T10:59:42.984Z,14.80
2023-02-22T11:00:42.932Z,15.20
2023-02-22T11:01:42.975Z,15.10
2023-02-22T11:02:42.902Z,14.80
2023-02-22T11:03:42.892Z,15.30
2023-02-22T11:04:42.916Z,15.30
2023-02-22T11:05:42.879Z,15.20
2023-02-22T11:06:42.862Z,15.00
2023-02-22T11:07:42.845Z,15.10
2023-02-22T11:08:42.850Z,15.00
2023-02-22T11:09:42.822Z,15.00
2023-02-22T11:10:42.840Z,15.50
2023-02-22T11:11:42.804Z,14.80
2023-02-22T11:12:42.789Z,15.20
2023-02-22T11:13:42.782Z,15.20
2023-02-22T11:14:42.784Z,14.80
2023-02-22T11:15:42.767Z,14.70
2023-02-22T11:16:42.827Z,15.00
2023-02-22T11:17:42.733Z,15.20
2023-02-22T11:18:42.726Z,15.20
2023-02-22T11:19:42.734Z,14.90
2023-02-22T11:20:42.730Z,14.90
2023-02-22T11:21:42.694Z,15.10
2023-02-22T11:22:42.680Z,15.10
2023-02-22T11:23:44.857Z,15.50
2023-02-22T11:24:49.028Z,15.20
2023-02-22T11:25:43.664Z,15.30
2023-02-22T11:26:42.647Z,15.30
2023-02-22T11:27:42.641Z,15.30
2023-02-22T11:28:42.617Z,15.40
2023-02-22T11:29:42.601Z,15.40
2023-02-22T11:30:42.828Z,15.00
2023-02-22T11:31:42.649Z,15.10
2023-02-22T11:32:42.583Z,15.90
2023-02-22T11:33:42.556Z,15.00
2023-02-22T11:34:42.546Z,15.00
2023-02-22T11:35:42.554Z,15.20
2023-02-22T11:36:42.527Z,15.30
2023-02-22T11:37:42.513Z,14.90
2023-02-22T11:38:42.501Z,15.70
2023-02-22T11:39:42.512Z,15.40
2023-02-22T11:40:42.521Z,15.20
2023-02-22T11:41:42.479Z,14.90
2023-02-22T11:42:42.465Z,15.30
2023-02-22T11:43:42.445Z,15.80
2023-02-22T11:44:42.442Z,15.00
2023-02-22T11:45:53.014Z,15.10
2023-02-22T11:46:43.459Z,15.10
2023-02-22T11:47:42.400Z,15.30
2023-02-22T11:48:42.399Z,15.40
2023-02-22T11:49:42.377Z,15.10
2023-02-22T11:50:42.370Z,15.20
2023-02-22T11:51:42.374Z,15.40
2023-02-22T11:52:42.346Z,16.20
2023-02-22T11:53:42.345Z,15.40
2023-02-22T11:54:42.323Z,15.80
2023-02-22T11:55:43.584Z,16.50
2023-02-22T11:56:42.849Z,15.30
2023-02-22T11:57:42.287Z,15.30
2023-02-22T11:58:42.278Z,15.50
2023-02-22T11:59:42.265Z,15.20
2023-02-22T12:00:42.256Z,14.70
2023-02-22T12:01:42.279Z,15.20
2023-02-22T12:02:51.888Z,16.00
2023-02-22T12:03:43.357Z,15.50
2023-02-22T12:04:42.384Z,15.50
2023-02-22T12:05:42.199Z,15.20
2023-02-22T12:06:42.201Z,14.80
2023-02-22T12:07:42.178Z,15.50
2023-02-22T12:08:42.170Z,15.60
2023-02-22T12:09:42.159Z,15.20
2023-02-22T12:10:42.162Z,15.40
2023-02-22T12:11:42.142Z,15.70
2023-02-22T12:12:42.139Z,16.00
2023-02-22T12:13:42.116Z,14.90
2023-02-22T12:14:42.117Z,15.00
2023-02-22T12:15:42.085Z,15.20
2023-02-22T12:16:42.093Z,15.10
2023-02-22T12:17:48.181Z,15.30
2023-02-22T12:18:43.074Z,15.40
2023-02-22T12:19:42.061Z,14.70
2023-02-22T12:20:42.035Z,14.60
2023-02-22T12:21:42.043Z,14.70
2023-02-22T12:22:42.015Z,14.90
2023-02-22T12:23:42.000Z,15.10
2023-02-22T12:24:41.992Z,14.50
2023-02-22T12:25:41.978Z,15.50
2023-02-22T12:26:42.027Z,15.90
2023-02-22T12:27:41.956Z,14.90
2023-02-22T12:28:42.066Z,15.20
2023-02-22T12:29:41.941Z,15.40
2023-02-22T12:30:42.115Z,14.60
2023-02-22T12:31:42.053Z,15.50
2023-02-22T12:32:42.026Z,15.10
2023-02-22T12:33:41.897Z,14.90
2023-02-22T12:34:41.947Z,15.20
2023-02-22T12:35:41.893Z,14.60
2023-02-22T12:36:41.874Z,14.80
2023-02-22T12:37:41.849Z,15.60
2023-02-22T12:38:41.843Z,15.30
2023-02-22T12:39:52.800Z,15.20
2023-02-22T12:40:42.845Z,15.40
2023-02-22T12:41:41.807Z,15.30
2023-02-22T12:42:41.799Z,14.90
2023-02-22T12:43:41.814Z,14.60
2023-02-22T12:44:41.814Z,15.20
2023-02-22T12:45:41.791Z,14.90
2023-02-22T12:46:41.903Z,14.40
2023-02-22T12:47:41.749Z,14.50
2023-02-22T12:48:41.738Z,14.50
2023-02-22T12:49:41.720Z,14.80
2023-02-22T12:50:41.712Z,14.60
2023-02-22T12:51:41.710Z,14.70
2023-02-22T12:52:41.690Z,14.80